createdAt,value
2023-02-06T00:05:13.152Z,3.30
2023-02-06T00:15:35.217Z,3.13
2023-02-06T00:25:56.805Z,3.15
2023-02-06T00:36:18.269Z,3.09
2023-02-06T00:46:39.788Z,3.19
2023-02-06T00:57:01.276Z,3.22
2023-02-06T01:07:22.646Z,3.13
2023-02-06T01:17:43.989Z,2.97
2023-02-06T01:28:05.400Z,2.86
2023-02-06T01:38:26.777Z,2.78
2023-02-06T01:48:49.505Z,2.77
2023-02-06T01:59:11.609Z,2.69
2023-02-06T02:09:33.654Z,2.60
2023-02-06T02:20:13.930Z,2.57
2023-02-06T02:30:54.256Z,2.47
2023-02-06T02:41:27.774Z,2.49
2023-02-06T02:51:50.284Z,2.51
2023-02-06T03:02:14.550Z,2.49
2023-02-06T03:12:44.661Z,2.47
2023-02-06T03:23:06.803Z,2.39
2023-02-06T03:33:31.781Z,2.37
2023-02-06T03:43:53.937Z,2.39
2023-02-06T03:54:16.954Z,2.48
2023-02-06T04:04:39.771Z,2.41
2023-02-06T04:15:01.124Z,2.35
2023-02-06T04:25:22.494Z,2.30
2023-02-06T04:35:43.967Z,2.31
2023-02-06T04:46:05.354Z,2.24
2023-02-06T04:56:26.782Z,2.40
2023-02-06T05:06:48.136Z,2.42
2023-02-06T05:17:09.515Z,2.44
2023-02-06T05:27:30.864Z,2.47
2023-02-06T05:37:52.280Z,2.51
2023-02-06T05:48:13.646Z,2.60
2023-02-06T05:58:35.034Z,2.56
2023-02-06T06:08:56.374Z,2.64
2023-02-06T06:19:17.817Z,2.80
2023-02-06T06:29:39.314Z,2.91
2023-02-06T06:40:00.682Z,2.93
2023-02-06T06:50:22.136Z,3.01
2023-02-06T07:00:43.580Z,3.16
2023-02-06T07:11:05.130Z,3.36
2023-02-06T07:21:26.479Z,3.52
2023-02-06T07:31:47.859Z,3.62
2023-02-06T07:42:09.313Z,3.72
2023-02-06T07:52:30.933Z,3.80
2023-02-06T08:02:52.277Z,3.94
2023-02-06T08:13:13.662Z,4.08
2023-02-06T08:23:35.389Z,4.23
2023-02-06T08:33:57.259Z,4.34
2023-02-06T08:44:18.679Z,4.38
2023-02-06T08:54:40.033Z,4.52
2023-02-06T09:05:01.416Z,4.57
2023-02-06T09:15:22.760Z,4.78
2023-02-06T09:25:45.103Z,4.93
2023-02-06T09:36:08.714Z,5.15
2023-02-06T09:46:33.368Z,5.42
2023-02-06T09:57:06.135Z,5.57
2023-02-06T10:07:57.265Z,5.78
2023-02-06T10:18:35.950Z,5.85
2023-02-06T10:29:00.419Z,6.06
2023-02-06T10:39:34.002Z,6.23
2023-02-06T10:50:02.963Z,6.49
2023-02-06T11:00:28.022Z,6.69
2023-02-06T11:10:50.093Z,6.71
2023-02-06T11:21:14.063Z,6.75
2023-02-06T11:31:44.911Z,6.73
2023-02-06T11:42:24.705Z,6.81
2023-02-06T11:52:47.252Z,6.82
2023-02-06T12:03:30.919Z,6.91
2023-02-06T12:13:57.348Z,6.97
2023-02-06T12:24:21.826Z,7.09
2023-02-06T12:34:56.372Z,7.26
2023-02-06T12:45:43.096Z,7.34
2023-02-06T12:56:13.782Z,7.36
2023-02-06T13:06:50.403Z,7.42
2023-02-06T13:17:22.006Z,7.55
2023-02-06T13:27:43.520Z,7.57
2023-02-06T13:38:23.452Z,7.63
2023-02-06T13:49:12.170Z,7.60
2023-02-06T13:59:50.795Z,7.57
2023-02-06T14:10:46.758Z,7.56
2023-02-06T14:21:29.484Z,7.54
2023-02-06T14:32:09.753Z,7.54
2023-02-06T14:42:57.485Z,7.39
2023-02-06T14:53:25.124Z,7.36
2023-02-06T15:03:48.194Z,7.24
2023-02-06T15:14:20.126Z,7.17
2023-02-06T15:24:44.464Z,7.13
2023-02-06T15:35:41.662Z,7.18
2023-02-06T15:46:04.792Z,7.17
2023-02-06T15:56:28.600Z,7.02
2023-02-06T16:07:01.472Z,6.92
2023-02-06T16:17:30.206Z,6.77
2023-02-06T16:27:52.438Z,6.67
2023-02-06T16:38:13.834Z,6.47
2023-02-06T16:48:35.210Z,6.23
2023-02-06T16:58:56.584Z,5.95
2023-02-06T17:09:18.852Z,5.87
2023-02-06T17:19:40.725Z,5.68
2023-02-06T17:30:04.036Z,5.53
2023-02-06T17:40:28.217Z,5.38
2023-02-06T17:50:49.603Z,5.27
2023-02-06T18:01:15.466Z,5.23
2023-02-06T18:11:37.110Z,5.09
2023-02-06T18:21:58.493Z,5.00
2023-02-06T18:32:19.957Z,4.91
2023-02-06T18:42:50.774Z,4.81
2023-02-06T18:53:12.167Z,4.69
2023-02-06T19:03:33.528Z,4.53
2023-02-06T19:13:55.015Z,4.41
2023-02-06T19:24:18.660Z,4.25
2023-02-06T19:34:40.873Z,4.09
2023-02-06T19:45:04.164Z,3.93
2023-02-06T19:55:25.574Z,3.79
2023-02-06T20:05:47.110Z,3.74
2023-02-06T20:16:23.430Z,3.64
2023-02-06T20:26:45.398Z,3.52
2023-02-06T20:37:06.791Z,3.41
2023-02-06T20:47:28.380Z,3.30
2023-02-06T20:57:49.766Z,3.30
2023-02-06T21:08:12.067Z,3.23
2023-02-06T21:18:33.738Z,3.18
2023-02-06T21:28:55.169Z,3.17
2023-02-06T21:39:21.562Z,3.09
2023-02-06T21:49:42.944Z,3.04
2023-02-06T22:00:04.681Z,2.99
2023-02-06T22:10:26.093Z,2.94
2023-02-06T22:20:47.442Z,2.75
2023-02-06T22:31:10.394Z,2.64
2023-02-06T22:41:32.221Z,2.55
2023-02-06T22:51:53.688Z,2.53
2023-02-06T23:02:15.138Z,2.47
2023-02-06T23:12:36.543Z,2.47
2023-02-06T23:22:57.914Z,2.34
2023-02-06T23:33:19.664Z,2.24
2023-02-06T23:43:41.201Z,2.23
2023-02-06T23:54:02.742Z,2.19
